Time;durP1;ratioP1;P1;durP2;ratioP2;P2;SDS_P1;SDS_P2;PMS_P1;PMS_P2;Temp;Humidity;BMP_temperature;BMP_pressure;BME280_temperature;BME280_humidity;BME280_pressure;Samples;Min_cycle;Max_cycle;Signal;HPM_P1;HPM_P2
2022/09/18 00:01:43;;;;;;;0.40;0.40;;;;;;;12.08;74.61;98703.84;5014490;28;20388;-67
2022/09/18 00:04:14;;;;;;;0.30;0.30;;;;;;;12.06;74.92;98703.06;4996416;28;20042;-68
2022/09/18 00:06:44;;;;;;;0.40;0.40;;;;;;;12.03;75.01;98703.97;4996544;28;20065;-68
2022/09/18 00:09:15;;;;;;;0.43;0.43;;;;;;;11.96;75.20;98704.97;5013861;28;20048;-67
2022/09/18 00:11:46;;;;;;;0.40;0.40;;;;;;;11.90;75.20;98707.66;5014141;28;20049;-68
2022/09/18 00:14:18;;;;;;;0.40;0.40;;;;;;;11.84;75.37;98707.81;5014124;28;20057;-68
2022/09/18 00:16:49;;;;;;;0.98;0.90;;;;;;;11.80;75.33;98698.53;5013751;28;20046;-67
2022/09/18 00:19:19;;;;;;;0.70;0.70;;;;;;;11.77;75.73;98698.59;5013930;28;20077;-68
2022/09/18 00:21:50;;;;;;;0.60;0.60;;;;;;;11.70;75.77;98697.03;5013694;28;20568;-67
2022/09/18 00:24:21;;;;;;;0.32;0.32;;;;;;;11.64;75.56;98702.22;5013987;28;20053;-67
2022/09/18 00:26:50;;;;;;;0.50;0.50;;;;;;;11.63;75.73;98709.94;5013652;28;20511;-66
2022/09/18 00:29:19;;;;;;;0.40;0.40;;;;;;;11.57;75.47;98715.16;5013943;28;20046;-68
2022/09/18 00:31:49;;;;;;;0.22;0.22;;;;;;;11.53;75.58;98714.38;5013950;28;20392;-68
2022/09/18 00:34:18;;;;;;;28.75;1.20;;;;;;;11.54;75.50;98715.22;4996116;28;20058;-68
2022/09/18 00:36:46;;;;;;;3.50;1.05;;;;;;;11.49;75.21;98723.00;5013596;28;20165;-67
2022/09/18 00:39:15;;;;;;;6.32;1.75;;;;;;;11.46;75.53;98728.16;5013614;28;20030;-68
2022/09/18 00:41:44;;;;;;;1.43;0.70;;;;;;;11.42;75.50;98737.59;5013845;28;20480;-67
2022/09/18 00:44:36;;;;;;;0.38;0.38;;;;;;;11.42;75.40;98736.75;4996145;28;20122;-67
2022/09/18 00:47:16;;;;;;;0.38;0.38;;;;;;;11.43;75.50;98740.97;5013156;28;20511;-69
2022/09/18 00:49:46;;;;;;;;;;;;;;;11.42;75.39;98736.75;5014017;28;20488;-67
2022/09/18 00:52:17;;;;;;;0.30;0.30;;;;;;;11.35;75.58;98735.16;4996063;28;19921;-68
2022/09/18 00:54:48;;;;;;;2.08;0.95;;;;;;;11.29;75.31;98736.16;5013769;28;20124;-68
2022/09/18 00:57:21;;;;;;;0.32;0.32;;;;;;;11.26;75.54;98737.91;4997041;28;20056;-68
2022/09/18 00:59:51;;;;;;;0.43;0.43;;;;;;;11.20;75.69;98740.59;5013853;28;20057;-68
2022/09/18 01:02:22;;;;;;;0.55;0.55;;;;;;;11.17;75.42;98735.53;5017120;28;20550;-68
2022/09/18 01:04:51;;;;;;;0.40;0.40;;;;;;;11.14;75.77;98730.47;5017450;28;20065;-68
2022/09/18 01:07:33;;;;;;;0.40;0.40;;;;;;;11.12;75.67;98724.56;5017595;28;20396;-68
2022/09/18 01:10:18;;;;;;;0.57;0.57;;;;;;;11.08;75.62;98730.59;4999495;28;20042;-68
2022/09/18 01:12:54;;;;;;;0.90;0.90;;;;;;;11.01;76.01;98723.91;4999806;28;20068;-67
2022/09/18 01:15:33;;;;;;;0.25;0.25;;;;;;;10.89;75.85;98731.78;5016939;28;20054;-67
2022/09/18 01:18:15;;;;;;;0.40;0.40;;;;;;;10.83;75.58;98727.63;5017141;28;20399;-67
2022/09/18 01:20:57;;;;;;;4.40;1.42;;;;;;;10.77;75.90;98731.09;5016763;28;20052;-67
2022/09/18 01:24:05;;;;;;;0.38;0.38;;;;;;;10.78;76.12;98737.06;4999324;28;20066;-68
2022/09/18 01:26:50;;;;;;;0.70;0.70;;;;;;;10.75;76.31;98740.50;5016390;28;20104;-67
2022/09/18 01:29:28;;;;;;;0.30;0.30;;;;;;;10.72;76.24;98727.78;5016921;28;20085;-67
2022/09/18 01:32:04;;;;;;;0.50;0.50;;;;;;;10.74;76.70;98728.63;4999215;28;20085;-67
2022/09/18 01:34:40;;;;;;;0.30;0.30;;;;;;;10.68;76.14;98736.38;4999235;28;20050;-67
2022/09/18 01:37:27;;;;;;;0.40;0.40;;;;;;;10.71;76.33;98741.44;4999104;28;20129;-67
2022/09/18 01:40:00;;;;;;;0.73;0.70;;;;;;;10.70;76.69;98739.72;4998808;28;20052;-67
2022/09/18 01:42:31;;;;;;;0.60;0.60;;;;;;;10.71;76.25;98746.53;5016696;28;20184;-66
2022/09/18 01:45:08;;;;;;;0.57;0.57;;;;;;;10.78;76.31;98753.22;5016359;28;20132;-67
2022/09/18 01:47:45;;;;;;;3.15;1.55;;;;;;;10.79;76.07;98754.06;5016337;28;20050;-66
2022/09/18 01:50:15;;;;;;;0.70;0.57;;;;;;;10.74;76.32;98761.81;5016217;28;20054;-67
2022/09/18 01:52:48;;;;;;;1.40;1.30;;;;;;;10.77;76.19;98760.91;5016182;28;20053;-67
2022/09/18 01:55:23;;;;;;;0.40;0.40;;;;;;;10.78;75.51;98763.44;4998738;28;20049;-67
2022/09/18 01:57:56;;;;;;;0.50;0.50;;;;;;;10.76;75.75;98766.88;4998948;28;20403;-67
2022/09/18 02:00:29;;;;;;;0.50;0.50;;;;;;;10.71;75.53;98772.06;4998877;28;20056;-67
2022/09/18 02:03:05;;;;;;;0.30;0.30;;;;;;;10.61;75.44;98778.16;5015981;28;20456;-67
2022/09/18 02:05:39;;;;;;;0.30;0.30;;;;;;;10.54;75.65;98784.22;4998587;28;20041;-67
2022/09/18 02:08:13;;;;;;;0.50;0.50;;;;;;;10.47;75.69;98766.47;5016565;28;20049;-67
2022/09/18 02:10:46;;;;;;;0.57;0.57;;;;;;;10.46;75.46;98775.03;4998398;28;20042;-68
2022/09/18 02:13:21;;;;;;;0.40;0.40;;;;;;;10.50;75.72;98772.41;4998321;28;20049;-67
2022/09/18 02:15:58;;;;;;;0.45;0.45;;;;;;;10.52;75.19;98770.66;4998423;28;20492;-67
2022/09/18 02:18:31;;;;;;;0.90;0.75;;;;;;;10.48;75.36;98781.78;4998609;28;20053;-66
2022/09/18 02:21:02;;;;;;;0.40;0.40;;;;;;;10.45;75.11;98779.28;5016125;28;20037;-67
2022/09/18 02:23:33;;;;;;;2.28;1.70;;;;;;;10.43;74.86;98765.69;5015891;28;20124;-67
2022/09/18 02:26:06;;;;;;;0.30;0.30;;;;;;;10.46;74.79;98770.72;4998457;28;20381;-67
2022/09/18 02:28:37;;;;;;;0.28;0.28;;;;;;;10.41;74.91;98777.63;5015869;28;20053;-67
2022/09/18 02:31:07;;;;;;;0.80;0.68;;;;;;;10.35;75.18;98780.25;5015586;28;20042;-68
2022/09/18 02:33:37;;;;;;;0.30;0.30;;;;;;;10.24;74.89;98773.63;5014252;28;20042;-67
2022/09/18 02:36:34;;;;;;;0.32;0.32;;;;;;;10.24;75.56;98782.13;4998292;28;20056;-67
2022/09/18 02:39:16;;;;;;;0.43;0.43;;;;;;;10.28;75.18;98776.13;5015710;28;20121;-67
2022/09/18 02:41:51;;;;;;;0.35;0.35;;;;;;;10.25;75.12;98773.59;5015276;28;20058;-67
2022/09/18 02:44:27;;;;;;;0.22;0.22;;;;;;;10.26;75.31;98777.84;4998101;28;20045;-67
2022/09/18 02:47:10;;;;;;;0.57;0.55;;;;;;;10.32;75.47;98776.94;4997802;28;20133;-67
2022/09/18 02:49:52;;;;;;;0.50;0.50;;;;;;;10.31;75.16;98768.44;4997718;28;20053;-68
2022/09/18 02:52:28;;;;;;;0.43;0.43;;;;;;;10.27;75.18;98764.22;5015097;28;20041;-67
2022/09/18 02:55:08;;;;;;;0.45;0.45;;;;;;;10.26;75.39;98772.75;4997841;28;20125;-67
2022/09/18 02:57:40;;;;;;;0.80;0.52;;;;;;;10.24;75.71;98773.63;4998096;28;20069;-67
2022/09/18 03:00:17;;;;;;;0.30;0.30;;;;;;;10.25;75.73;98778.69;4997642;28;20065;-67
2022/09/18 03:02:51;;;;;;;0.30;0.30;;;;;;;10.24;75.29;98783.84;5014830;28;20496;-67
2022/09/18 03:05:32;;;;;;;0.40;0.40;;;;;;;10.21;75.36;98782.16;5015203;28;20395;-67
2022/09/18 03:08:02;;;;;;;0.30;0.30;;;;;;;10.25;75.44;98771.06;4997673;28;20056;-68
2022/09/18 03:10:32;;;;;;;0.40;0.40;;;;;;;10.28;75.78;98776.13;5015065;28;20076;-66
2022/09/18 03:13:01;;;;;;;0.35;0.35;;;;;;;10.27;75.10;98781.25;4997089;28;20056;-69
2022/09/18 03:15:29;;;;;;;0.40;0.40;;;;;;;10.25;75.21;98796.56;5014698;28;20053;-67
2022/09/18 03:17:59;;;;;;;0.55;0.52;;;;;;;10.23;75.29;98798.28;5014629;28;20060;-66
2022/09/18 03:20:28;;;;;;;0.20;0.20;;;;;;;10.23;75.10;98798.28;4997424;28;20050;-66
2022/09/18 03:22:57;;;;;;;0.30;0.30;;;;;;;10.24;75.71;98805.09;5014106;28;20038;-66
2022/09/18 03:25:27;;;;;;;0.30;0.30;;;;;;;10.27;75.67;98805.00;4996974;28;20092;-67
2022/09/18 03:27:57;;;;;;;0.45;0.45;;;;;;;10.29;75.55;98812.66;5014511;28;20132;-67
2022/09/18 03:30:35;;;;;;;0.40;0.40;;;;;;;10.27;75.57;98815.22;4996939;28;20496;-67
2022/09/18 03:33:05;;;;;;;;;;;;;;;10.28;75.20;98827.13;4997285;28;20057;-67
2022/09/18 03:35:34;;;;;;;;;;;;;;;10.30;75.77;98821.97;4997190;28;19925;-66
2022/09/18 03:38:03;;;;;;;1.48;0.93;;;;;;;10.31;75.32;98832.19;4996701;28;19927;-66
2022/09/18 03:40:32;;;;;;;0.40;0.40;;;;;;;10.32;75.47;98833.03;4997077;28;20034;-66
2022/09/18 03:43:05;;;;;;;0.25;0.25;;;;;;;10.30;75.83;98830.50;5014175;28;20073;-67
2022/09/18 03:45:33;;;;;;;0.70;0.70;;;;;;;10.31;74.89;98837.28;4996631;28;20038;-66
2022/09/18 03:48:04;;;;;;;0.30;0.30;;;;;;;10.28;75.69;98847.53;5013494;28;20497;-67
2022/09/18 03:50:34;;;;;;;0.93;0.88;;;;;;;10.29;75.39;98844.13;4995881;28;20050;-66
2022/09/18 03:53:07;;;;;;;0.30;0.30;;;;;;;10.32;75.59;98856.81;4996222;28;20068;-67
2022/09/18 03:55:45;;;;;;;0.38;0.38;;;;;;;10.31;74.98;98857.69;4995813;28;20104;-67
2022/09/18 03:58:25;;;;;;;0.40;0.40;;;;;;;10.34;74.87;98862.72;5013261;28;20050;-67
2022/09/18 04:01:05;;;;;;;0.30;0.30;;;;;;;10.34;75.41;98862.72;5013404;28;20049;-67
2022/09/18 04:03:53;;;;;;;13.15;1.58;;;;;;;10.33;74.86;98860.22;5013148;28;20046;-66
2022/09/18 04:06:49;;;;;;;0.30;0.30;;;;;;;10.27;75.06;98856.03;4968536;28;20044;-67
2022/09/18 04:09:38;;;;;;;0.30;0.30;;;;;;;10.28;75.59;98862.81;5012500;28;20038;-67
2022/09/18 04:12:07;;;;;;;0.20;0.20;;;;;;;10.28;75.59;98857.72;4995627;28;20060;-66
2022/09/18 04:14:36;;;;;;;3.30;1.20;;;;;;;10.28;75.08;98857.72;5012955;28;20056;-67
2022/09/18 04:17:05;;;;;;;0.60;0.60;;;;;;;10.26;75.41;98863.69;4995839;28;20100;-67
2022/09/18 04:19:34;;;;;;;0.40;0.40;;;;;;;10.27;75.44;98863.66;4995663;28;20061;-67
2022/09/18 04:22:04;;;;;;;1.48;1.30;;;;;;;10.31;74.77;98859.38;5013402;28;20053;-67
2022/09/18 04:24:38;;;;;;;0.22;0.22;;;;;;;10.36;75.04;98862.72;5013246;28;20076;-67
2022/09/18 04:27:08;;;;;;;0.63;0.63;;;;;;;10.40;74.92;98865.22;5012858;28;20136;-67
2022/09/18 04:29:39;;;;;;;0.30;0.30;;;;;;;10.42;75.30;98866.03;5012870;28;20074;-67
2022/09/18 04:32:09;;;;;;;0.30;0.30;;;;;;;10.37;75.19;98866.94;4995385;28;20130;-67
2022/09/18 04:34:38;;;;;;;0.33;0.33;;;;;;;10.35;75.26;98869.53;5013123;28;20053;-68
2022/09/18 04:37:11;;;;;;;0.50;0.50;;;;;;;10.30;75.18;98867.88;4999206;28;20045;-67
2022/09/18 04:39:40;;;;;;;4.28;0.55;;;;;;;10.31;75.61;98865.34;4998789;28;20046;-67
2022/09/18 04:42:10;;;;;;;0.30;0.30;;;;;;;10.32;75.52;98867.00;5016147;28;20045;-67
2022/09/18 04:44:39;;;;;;;0.95;0.63;;;;;;;10.23;75.09;98868.84;4998667;28;20045;-66
2022/09/18 04:47:10;;;;;;;0.30;0.30;;;;;;;10.27;75.40;98866.22;4940587;28;1672009;-66
2022/09/18 04:49:39;;;;;;;0.30;0.30;;;;;;;10.25;75.13;98873.06;5000260;28;20046;-67
2022/09/18 04:52:08;;;;;;;0.30;0.30;;;;;;;10.29;75.30;98874.72;5000294;28;20490;-67
2022/09/18 04:54:38;;;;;;;0.40;0.40;;;;;;;10.31;75.45;98880.66;5017286;28;20049;-66
2022/09/18 04:57:07;;;;;;;0.30;0.30;;;;;;;10.38;75.28;98879.69;4999774;28;20137;-67
2022/09/18 04:59:36;;;;;;;1.13;1.07;;;;;;;10.44;75.33;98879.59;4999749;28;20142;-67
2022/09/18 05:02:05;;;;;;;0.55;0.55;;;;;;;10.50;75.61;98883.78;5017381;28;20046;-67
2022/09/18 05:04:36;;;;;;;0.30;0.30;;;;;;;10.59;75.09;98881.97;4999991;28;20048;-67
2022/09/18 05:07:19;;;;;;;0.30;0.30;;;;;;;10.64;75.15;98872.53;5017319;28;20046;-67
2022/09/18 05:09:49;;;;;;;0.30;0.30;;;;;;;10.68;74.56;98883.53;4999609;28;20046;-67
2022/09/18 05:12:18;;;;;;;0.40;0.40;;;;;;;10.72;74.51;98870.69;5017289;28;20050;-67
2022/09/18 05:14:47;;;;;;;0.70;0.70;;;;;;;10.76;74.13;98877.47;4999416;28;20044;-65
2022/09/18 05:17:18;;;;;;;0.68;0.68;;;;;;;10.80;74.24;98880.81;5016859;28;20500;-67
2022/09/18 05:20:06;;;;;;;0.22;0.22;;;;;;;10.84;73.76;98882.47;4999659;28;20373;-68
2022/09/18 05:22:39;;;;;;;0.30;0.30;;;;;;;10.88;73.62;98885.81;5016747;28;20050;-66
2022/09/18 05:25:13;;;;;;;0.40;0.40;;;;;;;10.91;73.54;98880.66;4999554;28;20057;-67
2022/09/18 05:27:42;;;;;;;0.30;0.30;;;;;;;10.93;73.38;98894.22;5000029;28;20408;-68
2022/09/18 05:30:11;;;;;;;0.30;0.30;;;;;;;10.95;73.10;98883.13;4999536;28;20089;-67
2022/09/18 05:32:55;;;;;;;0.40;0.40;;;;;;;11.00;73.18;98880.50;4999338;28;20049;-68
2022/09/18 05:35:31;;;;;;;0.30;0.30;;;;;;;11.07;72.91;98887.22;5016218;28;20052;-68
2022/09/18 05:38:01;;;;;;;0.32;0.32;;;;;;;11.14;72.70;98873.47;4998936;28;20049;-67
2022/09/18 05:40:35;;;;;;;0.52;0.52;;;;;;;11.24;72.88;98880.13;4998934;28;20054;-67
2022/09/18 05:43:04;;;;;;;0.30;0.30;;;;;;;11.33;72.83;98880.81;5016621;28;20050;-68
2022/09/18 05:45:34;;;;;;;0.32;0.32;;;;;;;11.41;72.75;98873.03;5016540;28;20054;-68
2022/09/18 05:48:13;;;;;;;0.38;0.38;;;;;;;11.45;72.41;98880.59;4998796;28;20112;-67
2022/09/18 05:50:42;;;;;;;0.35;0.35;;;;;;;11.49;72.03;98878.84;4999118;28;20038;-67
2022/09/18 05:53:15;;;;;;;0.30;0.30;;;;;;;11.49;71.41;98873.75;4998806;28;20496;-67
2022/09/18 05:55:59;;;;;;;4.47;1.10;;;;;;;11.47;71.14;98877.19;4999135;28;20057;-67
2022/09/18 05:58:28;;;;;;;0.40;0.40;;;;;;;11.46;70.93;98871.25;4998727;28;20041;-67
2022/09/18 06:00:58;;;;;;;0.30;0.30;;;;;;;11.50;70.87;98866.91;4998627;28;20038;-67
2022/09/18 06:03:41;;;;;;;0.30;0.30;;;;;;;11.57;70.44;98876.16;4998558;28;20042;-66
2022/09/18 06:06:09;;;;;;;1.87;0.53;;;;;;;11.60;69.99;98853.94;5016291;28;20049;-66
2022/09/18 06:08:38;;;;;;;0.20;0.20;;;;;;;11.57;69.88;98874.44;5015783;28;20050;-67
2022/09/18 06:11:08;;;;;;;0.20;0.20;;;;;;;11.53;69.62;98872.81;4998741;28;20038;-68
2022/09/18 06:13:37;;;;;;;0.30;0.30;;;;;;;11.54;69.77;98869.38;5016100;28;20498;-68
2022/09/18 06:16:05;;;;;;;0.40;0.40;;;;;;;11.51;69.71;98863.50;4998223;28;20131;-68
2022/09/18 06:18:51;;;;;;;0.32;0.32;;;;;;;11.48;69.48;98874.59;5016016;28;20496;-68
2022/09/18 06:21:22;;;;;;;0.30;0.30;;;;;;;11.43;69.48;98871.28;4996055;28;20108;-68
2022/09/18 06:23:50;;;;;;;0.65;0.65;;;;;;;11.38;69.43;98880.72;4991916;28;20073;-67
2022/09/18 06:26:40;;;;;;;0.30;0.30;;;;;;;11.29;69.62;98875.78;5001549;28;20041;-67
2022/09/18 06:29:09;;;;;;;0.55;0.52;;;;;;;11.26;69.73;98883.50;4998234;28;20496;-67
2022/09/18 06:31:47;;;;;;;0.40;0.40;;;;;;;11.26;69.88;98878.38;4997876;28;20052;-67
2022/09/18 06:34:21;;;;;;;0.28;0.28;;;;;;;11.22;69.75;98879.31;5015353;28;20073;-68
2022/09/18 06:36:52;;;;;;;0.20;0.20;;;;;;;11.24;69.99;98885.22;5015343;28;20562;-68
2022/09/18 06:39:28;;;;;;;0.20;0.20;;;;;;;11.28;69.76;98886.84;5015557;28;20046;-68
2022/09/18 06:42:01;;;;;;;0.40;0.40;;;;;;;11.29;70.17;98884.31;5015673;28;20064;-67
2022/09/18 06:44:47;;;;;;;1.35;1.05;;;;;;;11.34;69.89;98907.22;4997884;28;20092;-67
2022/09/18 06:47:17;;;;;;;;;;;;;;;11.41;69.68;98898.56;5015426;28;20082;-68
2022/09/18 06:49:47;;;;;;;0.40;0.40;;;;;;;11.45;69.82;98895.94;4998046;28;20008;-69
2022/09/18 06:52:17;;;;;;;0.30;0.30;;;;;;;11.57;69.58;98899.16;5015350;28;20050;-68
2022/09/18 06:54:47;;;;;;;0.40;0.40;;;;;;;11.63;69.40;98909.28;5015134;28;20451;-69
2022/09/18 06:57:31;;;;;;;0.40;0.40;;;;;;;11.68;68.85;98907.50;4996817;28;20058;-68
2022/09/18 07:00:00;;;;;;;0.47;0.38;;;;;;;11.70;68.83;98916.84;5015034;28;20492;-68
2022/09/18 07:02:35;;;;;;;0.30;0.30;;;;;;;11.71;68.60;98913.41;4997499;28;20081;-68
2022/09/18 07:05:15;;;;;;;;;;;;;;;11.75;68.53;98919.31;5015405;28;20416;-68
2022/09/18 07:07:45;;;;;;;0.30;0.30;;;;;;;11.81;68.71;98912.38;4997594;28;19921;-68
2022/09/18 07:10:15;;;;;;;0.30;0.30;;;;;;;11.84;68.34;98911.47;5015059;28;20106;-66
2022/09/18 07:12:48;;;;;;;0.57;0.57;;;;;;;11.85;67.89;98916.56;5015058;28;20104;-68
2022/09/18 07:15:20;;;;;;;1.05;0.95;;;;;;;11.85;67.74;98920.84;5014931;28;20136;-67
2022/09/18 07:17:48;;;;;;;0.25;0.25;;;;;;;11.83;67.87;98925.97;4997171;28;20522;-68
2022/09/18 07:20:19;;;;;;;0.30;0.30;;;;;;;11.86;67.49;98918.25;5014884;28;20046;-67
2022/09/18 07:22:53;;;;;;;0.28;0.28;;;;;;;11.85;67.47;98916.56;4996898;28;20072;-68
2022/09/18 07:25:33;;;;;;;0.30;0.30;;;;;;;11.88;67.25;98931.00;4996986;28;20050;-67
2022/09/18 07:28:08;;;;;;;0.73;0.68;;;;;;;11.88;67.33;98931.84;4997298;28;20464;-67
2022/09/18 07:30:45;;;;;;;0.40;0.40;;;;;;;11.85;67.25;98931.06;5014780;28;20049;-67
2022/09/18 07:33:15;;;;;;;0.30;0.30;;;;;;;11.82;66.92;98926.00;4980950;28;20057;-68
2022/09/18 07:35:47;;;;;;;0.20;0.20;;;;;;;11.82;67.70;98937.09;4996871;28;20492;-68
2022/09/18 07:38:17;;;;;;;0.40;0.40;;;;;;;11.80;67.38;98923.50;4996841;28;20077;-68
2022/09/18 07:40:56;;;;;;;0.40;0.40;;;;;;;11.84;67.43;98925.09;5014257;28;20049;-68
2022/09/18 07:43:34;;;;;;;0.25;0.25;;;;;;;11.90;67.29;98924.97;5014515;28;20042;-67
2022/09/18 07:46:04;;;;;;;0.30;0.30;;;;;;;11.94;66.76;98921.53;5014256;28;20057;-67
2022/09/18 07:48:34;;;;;;;0.20;0.20;;;;;;;12.01;66.97;98927.34;5013930;28;20049;-68
2022/09/18 07:51:14;;;;;;;0.40;0.40;;;;;;;12.10;66.60;98930.59;5014173;28;20050;-67
2022/09/18 07:53:48;;;;;;;0.43;0.43;;;;;;;12.11;66.18;98918.66;5014274;28;20115;-66
2022/09/18 07:56:26;;;;;;;0.40;0.40;;;;;;;12.18;66.00;98925.31;4996013;28;20046;-67
2022/09/18 07:58:58;;;;;;;0.35;0.35;;;;;;;12.27;65.86;98929.41;5014302;28;20176;-68
2022/09/18 08:01:30;;;;;;;0.30;0.30;;;;;;;12.30;66.03;98930.22;4997090;28;20058;-68
2022/09/18 08:03:58;;;;;;;6.63;0.68;;;;;;;12.33;66.10;98936.97;4996254;28;20042;-68
2022/09/18 08:06:38;;;;;;;;;;;;;;;12.25;66.41;98936.28;5014251;28;20046;-66
2022/09/18 08:09:15;;;;;;;0.30;0.30;;;;;;;12.24;66.69;98934.59;4996601;28;19925;-67
2022/09/18 08:11:54;;;;;;;;;;;;;;;12.30;67.20;98931.91;5013898;28;20491;-66
2022/09/18 08:14:45;;;;;;;0.20;0.20;;;;;;;12.39;68.15;98939.41;4982820;28;20008;-67
2022/09/18 08:17:44;;;;;;;0.20;0.20;;;;;;;12.57;68.60;98939.03;4994497;28;20049;-68
2022/09/18 08:20:24;;;;;;;0.30;0.30;;;;;;;12.72;69.25;98943.81;5013723;28;20074;-67
2022/09/18 08:23:08;;;;;;;0.30;0.30;;;;;;;12.83;69.07;98931.66;5013984;28;20491;-67
2022/09/18 08:25:40;;;;;;;0.50;0.50;;;;;;;12.95;68.96;98944.19;5014081;28;20042;-67
2022/09/18 08:28:10;;;;;;;;;;;;;;;13.07;68.74;98948.22;4996830;28;20064;-67
2022/09/18 08:30:48;;;;;;;0.30;0.30;;;;;;;13.13;68.55;98946.34;4996207;28;19922;-67
2022/09/18 08:33:18;;;;;;;0.30;0.30;;;;;;;13.08;68.43;98945.63;5012776;28;20049;-66
2022/09/18 08:35:46;;;;;;;0.35;0.35;;;;;;;12.95;68.84;98949.31;5014108;28;20034;-67
2022/09/18 08:38:37;;;;;;;0.30;0.30;;;;;;;12.76;69.38;98955.72;4995982;28;20129;-68
2022/09/18 08:41:29;;;;;;;1.15;1.05;;;;;;;12.62;69.78;98955.16;5013736;28;20050;-67
2022/09/18 08:44:05;;;;;;;0.28;0.28;;;;;;;12.47;70.16;98958.03;5013465;28;20038;-67
2022/09/18 08:46:43;;;;;;;0.30;0.30;;;;;;;12.36;70.51;98959.94;5013983;28;20104;-67
2022/09/18 08:49:22;;;;;;;0.30;0.30;;;;;;;12.38;70.90;98963.31;4995941;28;20643;-66
2022/09/18 08:52:00;;;;;;;0.25;0.25;;;;;;;12.34;71.24;98956.56;5013871;28;20046;-66
2022/09/18 08:54:43;;;;;;;1.20;1.10;;;;;;;12.33;71.79;98960.00;4996338;28;20046;-65
2022/09/18 08:57:37;;;;;;;0.40;0.40;;;;;;;12.65;72.23;98952.50;5013643;28;20073;-67
2022/09/18 09:00:19;;;;;;;0.40;0.40;;;;;;;12.81;72.72;98953.91;4996106;28;20048;-66
2022/09/18 09:03:13;;;;;;;0.30;0.30;;;;;;;12.76;72.16;98960.81;5013420;28;20089;-67
2022/09/18 09:05:47;;;;;;;0.50;0.50;;;;;;;12.73;71.36;98966.00;4995862;28;20484;-68
2022/09/18 09:08:59;;;;;;;0.40;0.40;;;;;;;12.72;70.42;98967.72;5013277;28;20053;-67
2022/09/18 09:11:38;;;;;;;0.40;0.40;;;;;;;12.76;69.83;98971.88;5013323;28;20070;-67
2022/09/18 09:14:20;;;;;;;0.85;0.73;;;;;;;13.09;69.30;98962.69;4995774;28;20050;-67
2022/09/18 09:17:16;;;;;;;0.20;0.20;;;;;;;13.56;68.06;98965.84;4995701;28;20119;-66
2022/09/18 09:19:54;;;;;;;0.35;0.35;;;;;;;13.98;66.98;98969.91;4995707;28;20504;-66
2022/09/18 09:22:35;;;;;;;0.40;0.40;;;;;;;14.29;66.06;98973.38;4998663;28;20141;-67
2022/09/18 09:25:17;;;;;;;0.50;0.50;;;;;;;14.41;64.92;98975.63;4999407;28;20412;-67
2022/09/18 09:28:00;;;;;;;0.32;0.32;;;;;;;14.35;64.61;98983.47;5016845;28;20504;-67
2022/09/18 09:30:59;;;;;;;0.40;0.40;;;;;;;13.94;64.99;98987.09;5017167;28;20395;-67
2022/09/18 09:33:42;;;;;;;0.50;0.50;;;;;;;13.61;65.58;98999.91;5016931;28;20045;-67
2022/09/18 09:36:25;;;;;;;0.30;0.30;;;;;;;13.40;66.21;99001.25;5016673;28;20050;-67
2022/09/18 09:38:59;;;;;;;0.30;0.30;;;;;;;13.18;67.28;99011.16;4999360;28;20128;-67
2022/09/18 09:41:36;;;;;;;0.40;0.40;;;;;;;13.01;68.40;99007.22;4983099;28;20046;-67
2022/09/18 09:44:22;;;;;;;0.40;0.40;;;;;;;12.77;69.53;99008.59;5016280;28;20050;-67
2022/09/18 09:47:03;;;;;;;0.40;0.40;;;;;;;12.65;70.84;99019.91;4999131;28;20049;-66
2022/09/18 09:49:39;;;;;;;0.30;0.30;;;;;;;12.60;71.52;99026.00;4998987;28;20436;-67
2022/09/18 09:52:17;;;;;;;0.25;0.25;;;;;;;12.52;71.98;99027.88;5016194;28;20058;-69
2022/09/18 09:54:46;;;;;;;0.30;0.30;;;;;;;12.49;72.52;99045.84;4998817;28;20100;-68
2022/09/18 09:57:25;;;;;;;0.40;0.30;;;;;;;12.50;72.74;99034.75;5016130;28;20042;-68
2022/09/18 10:00:05;;;;;;;0.30;0.30;;;;;;;12.47;73.12;99056.13;5016167;28;20096;-68
2022/09/18 10:03:01;;;;;;;0.40;0.40;;;;;;;12.38;73.10;99048.59;5016507;28;20050;-68
2022/09/18 10:05:41;;;;;;;0.40;0.40;;;;;;;12.37;73.28;99054.59;5015970;28;20053;-68
2022/09/18 10:08:17;;;;;;;0.20;0.20;;;;;;;12.31;73.82;99046.19;4998617;28;20060;-69
2022/09/18 10:10:53;;;;;;;0.50;0.50;;;;;;;12.24;74.01;99048.00;5016318;28;20172;-69
2022/09/18 10:13:27;;;;;;;0.55;0.30;;;;;;;12.14;74.50;99056.69;4998579;28;20377;-68
2022/09/18 10:16:04;;;;;;;0.30;0.30;;;;;;;12.17;75.11;99066.03;4998364;28;20050;-69
2022/09/18 10:18:38;;;;;;;0.20;0.20;;;;;;;12.21;75.33;99068.53;5015813;28;20050;-68
2022/09/18 10:21:11;;;;;;;0.30;0.30;;;;;;;12.22;75.40;99077.03;4998313;28;20092;-68
2022/09/18 10:23:43;;;;;;;0.38;0.38;;;;;;;12.27;75.97;99077.81;4998420;28;20045;-68
2022/09/18 10:26:19;;;;;;;0.30;0.30;;;;;;;12.35;76.09;99073.41;5015553;28;20048;-68
2022/09/18 10:28:48;;;;;;;0.20;0.20;;;;;;;12.39;76.45;99077.59;5015956;28;20050;-68
2022/09/18 10:31:17;;;;;;;1.90;0.95;;;;;;;12.42;76.79;99077.53;4998403;28;20474;-68
2022/09/18 10:33:52;;;;;;;0.32;0.32;;;;;;;12.50;76.53;99068.03;5014738;28;20140;-68
2022/09/18 10:36:31;;;;;;;0.30;0.30;;;;;;;12.57;76.51;99072.16;5015448;28;20038;-68
2022/09/18 10:39:17;;;;;;;0.40;0.40;;;;;;;12.61;76.28;99063.53;4998149;28;20108;-68
2022/09/18 10:41:49;;;;;;;0.40;0.40;;;;;;;12.61;75.62;99073.78;4998505;28;20114;-68
2022/09/18 10:44:22;;;;;;;0.73;0.73;;;;;;;12.72;75.25;99061.59;4981600;28;20052;-68
2022/09/18 10:47:02;;;;;;;0.50;0.50;;;;;;;12.82;75.38;99072.50;4998101;28;20054;-69
2022/09/18 10:49:35;;;;;;;0.95;0.90;;;;;;;12.88;75.05;99060.44;4998360;28;20400;-70
2022/09/18 10:52:27;;;;;;;0.47;0.45;;;;;;;12.99;75.86;99076.44;5015265;28;20068;-69
2022/09/18 10:55:11;;;;;;;0.30;0.30;;;;;;;13.04;76.00;99069.50;5015418;28;20053;-69
2022/09/18 10:57:45;;;;;;;0.30;0.30;;;;;;;13.14;76.36;99063.34;4997563;28;20141;-69
2022/09/18 11:00:47;;;;;;;0.40;0.40;;;;;;;13.11;75.84;99065.97;5015021;28;20050;-69
2022/09/18 11:03:24;;;;;;;0.30;0.30;;;;;;;13.16;75.07;99069.28;5013851;28;20049;-68
2022/09/18 11:05:58;;;;;;;0.40;0.40;;;;;;;13.22;74.77;99064.00;4997432;28;20046;-69
2022/09/18 11:08:30;;;;;;;0.40;0.40;;;;;;;13.18;74.38;99051.31;4997712;28;20115;-69
2022/09/18 11:11:05;;;;;;;0.65;0.60;;;;;;;13.20;74.05;99052.09;5014789;28;20045;-68
2022/09/18 11:13:44;;;;;;;0.65;0.50;;;;;;;13.20;73.24;99055.53;5014717;28;20042;-68
2022/09/18 11:16:23;;;;;;;0.52;0.52;;;;;;;13.27;72.65;99056.22;5014775;28;20214;-69
2022/09/18 11:19:18;;;;;;;0.40;0.40;;;;;;;13.31;72.31;99052.75;4997159;28;20069;-69
2022/09/18 11:21:50;;;;;;;0.90;0.90;;;;;;;13.38;72.81;99050.00;5011854;28;20053;-68
2022/09/18 11:24:25;;;;;;;0.40;0.40;;;;;;;13.38;73.10;99050.00;5014547;28;20050;-69
2022/09/18 11:27:03;;;;;;;0.28;0.28;;;;;;;13.41;72.17;99043.97;4996830;28;20488;-69
2022/09/18 11:29:38;;;;;;;1.50;0.43;;;;;;;13.51;71.71;99039.50;4996921;28;20132;-69
2022/09/18 11:32:17;;;;;;;0.30;0.30;;;;;;;13.64;71.54;99048.56;5014473;28;20050;-69
2022/09/18 11:34:51;;;;;;;0.63;0.50;;;;;;;13.78;70.98;99055.06;4996893;28;20058;-69
2022/09/18 11:37:29;;;;;;;0.45;0.45;;;;;;;13.84;69.84;99041.25;4996877;28;20042;-70
2022/09/18 11:40:02;;;;;;;0.30;0.30;;;;;;;13.85;68.97;99050.63;5014232;28;20057;-69
2022/09/18 11:42:41;;;;;;;22.58;1.05;;;;;;;13.91;68.49;99040.22;4966550;28;20099;-70
2022/09/18 11:45:25;;;;;;;0.30;0.30;;;;;;;13.99;67.83;99038.28;4996210;28;20073;-69
2022/09/18 11:47:59;;;;;;;0.57;0.57;;;;;;;14.08;67.76;99030.38;5014151;28;20054;-69
2022/09/18 11:50:35;;;;;;;0.38;0.38;;;;;;;14.11;66.57;99032.84;5014404;28;20046;-69
2022/09/18 11:53:13;;;;;;;0.50;0.50;;;;;;;14.09;66.00;99029.50;5014243;28;20492;-69
2022/09/18 11:55:48;;;;;;;0.30;0.30;;;;;;;14.08;66.31;99038.09;5014111;28;20046;-69
2022/09/18 11:58:25;;;;;;;1.85;1.48;;;;;;;14.05;66.04;99038.16;5013990;28;20049;-70
2022/09/18 12:01:03;;;;;;;0.40;0.40;;;;;;;14.06;66.42;99030.41;4996664;28;20129;-69
2022/09/18 12:03:37;;;;;;;0.50;0.50;;;;;;;14.19;65.76;99025.81;4996740;28;20492;-70
2022/09/18 12:06:14;;;;;;;1.63;0.85;;;;;;;14.29;65.35;99027.28;4996489;28;20128;-68
2022/09/18 12:08:50;;;;;;;0.30;0.30;;;;;;;14.41;65.60;99026.13;5012648;28;20124;-68
2022/09/18 12:11:32;;;;;;;0.30;0.30;;;;;;;14.76;65.05;99020.84;5013933;28;20050;-68
2022/09/18 12:14:12;;;;;;;0.83;0.83;;;;;;;15.43;63.53;99020.56;4996427;28;20049;-69